sensor_id;sensor_type;location;lat;lon;timestamp;pressure;altitude;pressure_sealevel;temperature
71564;BMP180;59391;52.504;13.438;2023-07-13T00:00:30;100925.00;;;25.70
71564;BMP180;59391;52.504;13.438;2023-07-13T00:02:57;100925.00;;;25.70
71564;BMP180;59391;52.504;13.438;2023-07-13T00:05:23;100915.00;;;25.60
71564;BMP180;59391;52.504;13.438;2023-07-13T00:07:50;100924.00;;;25.60
71564;BMP180;59391;52.504;13.438;2023-07-13T00:10:17;100913.00;;;25.50
71564;BMP180;59391;52.504;13.438;2023-07-13T00:12:43;100917.00;;;25.50
71564;BMP180;59391;52.504;13.438;2023-07-13T00:15:23;100924.00;;;25.40
71564;BMP180;59391;52.504;13.438;2023-07-13T00:17:54;100924.00;;;25.40
71564;BMP180;59391;52.504;13.438;2023-07-13T00:20:22;100935.00;;;25.30
71564;BMP180;59391;52.504;13.438;2023-07-13T00:22:49;100929.00;;;25.30
71564;BMP180;59391;52.504;13.438;2023-07-13T00:25:15;100920.00;;;25.30
71564;BMP180;59391;52.504;13.438;2023-07-13T00:27:43;100923.00;;;25.20
71564;BMP180;59391;52.504;13.438;2023-07-13T00:30:10;100932.00;;;25.20
71564;BMP180;59391;52.504;13.438;2023-07-13T00:32:37;100930.00;;;25.20
71564;BMP180;59391;52.504;13.438;2023-07-13T00:35:03;100928.00;;;25.20
71564;BMP180;59391;52.504;13.438;2023-07-13T00:37:30;100931.00;;;25.20
71564;BMP180;59391;52.504;13.438;2023-07-13T00:39:56;100928.00;;;25.10
71564;BMP180;59391;52.504;13.438;2023-07-13T00:42:24;100926.00;;;25.10
71564;BMP180;59391;52.504;13.438;2023-07-13T00:47:33;100932.00;;;25.10
71564;BMP180;59391;52.504;13.438;2023-07-13T00:50:00;100936.00;;;25.10
71564;BMP180;59391;52.504;13.438;2023-07-13T00:52:26;100927.00;;;25.10
71564;BMP180;59391;52.504;13.438;2023-07-13T00:54:54;100928.00;;;25.00
71564;BMP180;59391;52.504;13.438;2023-07-13T00:57:21;100926.00;;;25.00
71564;BMP180;59391;52.504;13.438;2023-07-13T00:59:58;100928.00;;;25.00
71564;BMP180;59391;52.504;13.438;2023-07-13T01:02:26;100926.00;;;25.00
71564;BMP180;59391;52.504;13.438;2023-07-13T01:04:51;100927.00;;;25.00
71564;BMP180;59391;52.504;13.438;2023-07-13T01:07:18;100928.00;;;25.00
71564;BMP180;59391;52.504;13.438;2023-07-13T01:09:44;100929.00;;;25.00
71564;BMP180;59391;52.504;13.438;2023-07-13T01:12:11;100929.00;;;25.00
71564;BMP180;59391;52.504;13.438;2023-07-13T01:14:37;100935.00;;;24.90
71564;BMP180;59391;52.504;13.438;2023-07-13T01:17:03;100934.00;;;24.90
71564;BMP180;59391;52.504;13.438;2023-07-13T01:19:45;100937.00;;;24.80
71564;BMP180;59391;52.504;13.438;2023-07-13T01:22:18;100929.00;;;24.80
71564;BMP180;59391;52.504;13.438;2023-07-13T01:24:48;100942.00;;;24.80
71564;BMP180;59391;52.504;13.438;2023-07-13T01:27:17;100935.00;;;24.80
71564;BMP180;59391;52.504;13.438;2023-07-13T01:29:45;100948.00;;;24.80
71564;BMP180;59391;52.504;13.438;2023-07-13T01:32:17;100949.00;;;24.70
71564;BMP180;59391;52.504;13.438;2023-07-13T01:34:51;100949.00;;;24.70
71564;BMP180;59391;52.504;13.438;2023-07-13T01:37:20;100943.00;;;24.70
71564;BMP180;59391;52.504;13.438;2023-07-13T01:39:46;100940.00;;;24.70
71564;BMP180;59391;52.504;13.438;2023-07-13T01:42:12;100932.00;;;24.70
71564;BMP180;59391;52.504;13.438;2023-07-13T01:44:38;100929.00;;;24.60
71564;BMP180;59391;52.504;13.438;2023-07-13T01:47:04;100936.00;;;24.60
71564;BMP180;59391;52.504;13.438;2023-07-13T01:49:30;100937.00;;;24.60
71564;BMP180;59391;52.504;13.438;2023-07-13T01:51:56;100936.00;;;24.60
71564;BMP180;59391;52.504;13.438;2023-07-13T01:54:21;100921.00;;;24.60
71564;BMP180;59391;52.504;13.438;2023-07-13T01:56:47;100917.00;;;24.60
71564;BMP180;59391;52.504;13.438;2023-07-13T01:59:13;100921.00;;;24.60
71564;BMP180;59391;52.504;13.438;2023-07-13T02:01:38;100935.00;;;24.50
71564;BMP180;59391;52.504;13.438;2023-07-13T02:04:04;100931.00;;;24.50
71564;BMP180;59391;52.504;13.438;2023-07-13T02:06:30;100935.00;;;24.50
71564;BMP180;59391;52.504;13.438;2023-07-13T02:08:56;100934.00;;;24.40
71564;BMP180;59391;52.504;13.438;2023-07-13T02:11:21;100934.00;;;24.40
71564;BMP180;59391;52.504;13.438;2023-07-13T02:13:47;100937.00;;;24.30
71564;BMP180;59391;52.504;13.438;2023-07-13T02:16:13;100932.00;;;24.20
71564;BMP180;59391;52.504;13.438;2023-07-13T02:18:38;100933.00;;;24.20
71564;BMP180;59391;52.504;13.438;2023-07-13T02:21:04;100931.00;;;24.20
71564;BMP180;59391;52.504;13.438;2023-07-13T02:23:30;100936.00;;;24.10
71564;BMP180;59391;52.504;13.438;2023-07-13T02:26:01;100924.00;;;24.10
71564;BMP180;59391;52.504;13.438;2023-07-13T02:28:28;100914.00;;;24.00
71564;BMP180;59391;52.504;13.438;2023-07-13T02:30:53;100905.00;;;24.00
71564;BMP180;59391;52.504;13.438;2023-07-13T02:33:19;100906.00;;;24.00
71564;BMP180;59391;52.504;13.438;2023-07-13T02:35:45;100903.00;;;24.00
71564;BMP180;59391;52.504;13.438;2023-07-13T02:38:11;100903.00;;;24.00
71564;BMP180;59391;52.504;13.438;2023-07-13T02:40:36;100910.00;;;24.10
71564;BMP180;59391;52.504;13.438;2023-07-13T02:43:03;100924.00;;;24.00
71564;BMP180;59391;52.504;13.438;2023-07-13T02:45:28;100930.00;;;24.00
71564;BMP180;59391;52.504;13.438;2023-07-13T02:47:54;100925.00;;;24.00
71564;BMP180;59391;52.504;13.438;2023-07-13T02:50:20;100917.00;;;24.00
71564;BMP180;59391;52.504;13.438;2023-07-13T02:52:45;100930.00;;;24.00
71564;BMP180;59391;52.504;13.438;2023-07-13T02:55:11;100931.00;;;24.00
71564;BMP180;59391;52.504;13.438;2023-07-13T02:57:37;100935.00;;;23.90
71564;BMP180;59391;52.504;13.438;2023-07-13T03:00:04;100935.00;;;23.90
71564;BMP180;59391;52.504;13.438;2023-07-13T03:02:34;100935.00;;;23.90
71564;BMP180;59391;52.504;13.438;2023-07-13T03:05:01;100944.00;;;23.80
71564;BMP180;59391;52.504;13.438;2023-07-13T03:07:26;100944.00;;;23.80
71564;BMP180;59391;52.504;13.438;2023-07-13T03:09:56;100951.00;;;23.70
71564;BMP180;59391;52.504;13.438;2023-07-13T03:12:23;100954.00;;;23.70
71564;BMP180;59391;52.504;13.438;2023-07-13T03:14:48;100947.00;;;23.70
71564;BMP180;59391;52.504;13.438;2023-07-13T03:17:14;100950.00;;;23.60
71564;BMP180;59391;52.504;13.438;2023-07-13T03:19:40;100953.00;;;23.60
71564;BMP180;59391;52.504;13.438;2023-07-13T03:22:06;100956.00;;;23.60
71564;BMP180;59391;52.504;13.438;2023-07-13T03:24:33;100957.00;;;23.50
71564;BMP180;59391;52.504;13.438;2023-07-13T03:27:04;100956.00;;;23.50
71564;BMP180;59391;52.504;13.438;2023-07-13T03:29:30;100960.00;;;23.50
71564;BMP180;59391;52.504;13.438;2023-07-13T03:31:56;100964.00;;;23.50
71564;BMP180;59391;52.504;13.438;2023-07-13T03:34:21;100958.00;;;23.50
71564;BMP180;59391;52.504;13.438;2023-07-13T03:36:47;100973.00;;;23.50
71564;BMP180;59391;52.504;13.438;2023-07-13T03:39:13;100978.00;;;23.60
71564;BMP180;59391;52.504;13.438;2023-07-13T03:41:38;100975.00;;;23.60
71564;BMP180;59391;52.504;13.438;2023-07-13T03:44:04;100959.00;;;23.60
71564;BMP180;59391;52.504;13.438;2023-07-13T03:46:30;100966.00;;;23.60
71564;BMP180;59391;52.504;13.438;2023-07-13T03:48:57;100964.00;;;23.60
71564;BMP180;59391;52.504;13.438;2023-07-13T03:51:22;100972.00;;;23.60
71564;BMP180;59391;52.504;13.438;2023-07-13T03:53:48;100977.00;;;23.60
71564;BMP180;59391;52.504;13.438;2023-07-13T03:56:15;100974.00;;;23.60
71564;BMP180;59391;52.504;13.438;2023-07-13T03:58:43;100985.00;;;23.60
71564;BMP180;59391;52.504;13.438;2023-07-13T04:01:12;100986.00;;;23.70
71564;BMP180;59391;52.504;13.438;2023-07-13T04:03:38;100984.00;;;23.70
71564;BMP180;59391;52.504;13.438;2023-07-13T04:06:14;100975.00;;;23.60
71564;BMP180;59391;52.504;13.438;2023-07-13T04:08:40;100983.00;;;23.70
71564;BMP180;59391;52.504;13.438;2023-07-13T04:11:06;100983.00;;;23.70
71564;BMP180;59391;52.504;13.438;2023-07-13T04:13:32;100977.00;;;23.70
71564;BMP180;59391;52.504;13.438;2023-07-13T04:15:58;100979.00;;;23.70
71564;BMP180;59391;52.504;13.438;2023-07-13T04:18:24;100987.00;;;23.70
71564;BMP180;59391;52.504;13.438;2023-07-13T04:20:50;100985.00;;;23.70
71564;BMP180;59391;52.504;13.438;2023-07-13T04:23:17;100977.00;;;23.70
71564;BMP180;59391;52.504;13.438;2023-07-13T04:25:47;100986.00;;;23.70
71564;BMP180;59391;52.504;13.438;2023-07-13T04:28:16;100982.00;;;23.70
71564;BMP180;59391;52.504;13.438;2023-07-13T04:30:43;100983.00;;;23.70
71564;BMP180;59391;52.504;13.438;2023-07-13T04:33:09;100985.00;;;23.70
71564;BMP180;59391;52.504;13.438;2023-07-13T04:35:35;100986.00;;;23.70
71564;BMP180;59391;52.504;13.438;2023-07-13T04:38:01;100992.00;;;23.80
71564;BMP180;59391;52.504;13.438;2023-07-13T04:40:28;100994.00;;;23.80
71564;BMP180;59391;52.504;13.438;2023-07-13T04:42:55;100997.00;;;23.80
71564;BMP180;59391;52.504;13.438;2023-07-13T04:45:21;100994.00;;;23.80
71564;BMP180;59391;52.504;13.438;2023-07-13T04:47:47;100993.00;;;23.80
71564;BMP180;59391;52.504;13.438;2023-07-13T04:50:13;101002.00;;;23.80
71564;BMP180;59391;52.504;13.438;2023-07-13T04:52:44;101011.00;;;23.80
71564;BMP180;59391;52.504;13.438;2023-07-13T04:55:11;101008.00;;;23.80
71564;BMP180;59391;52.504;13.438;2023-07-13T04:57:37;101016.00;;;23.80
71564;BMP180;59391;52.504;13.438;2023-07-13T05:00:04;101015.00;;;23.80
71564;BMP180;59391;52.504;13.438;2023-07-13T05:02:33;101007.00;;;23.80
71564;BMP180;59391;52.504;13.438;2023-07-13T05:04:59;101015.00;;;23.80
71564;BMP180;59391;52.504;13.438;2023-07-13T05:07:26;101025.00;;;23.80
71564;BMP180;59391;52.504;13.438;2023-07-13T05:09:52;101023.00;;;23.80
71564;BMP180;59391;52.504;13.438;2023-07-13T05:12:18;101033.00;;;23.80
71564;BMP180;59391;52.504;13.438;2023-07-13T05:14:44;101028.00;;;23.80
71564;BMP180;59391;52.504;13.438;2023-07-13T05:17:09;101023.00;;;23.80
71564;BMP180;59391;52.504;13.438;2023-07-13T05:19:36;101022.00;;;23.90
71564;BMP180;59391;52.504;13.438;2023-07-13T05:22:02;101022.00;;;23.90
71564;BMP180;59391;52.504;13.438;2023-07-13T05:24:28;101034.00;;;23.90
71564;BMP180;59391;52.504;13.438;2023-07-13T05:26:54;101031.00;;;23.90
71564;BMP180;59391;52.504;13.438;2023-07-13T05:29:21;101031.00;;;24.00
71564;BMP180;59391;52.504;13.438;2023-07-13T05:31:47;101029.00;;;23.90
71564;BMP180;59391;52.504;13.438;2023-07-13T05:34:12;101036.00;;;24.00
71564;BMP180;59391;52.504;13.438;2023-07-13T05:36:38;101021.00;;;24.00
71564;BMP180;59391;52.504;13.438;2023-07-13T05:39:04;101021.00;;;24.00
71564;BMP180;59391;52.504;13.438;2023-07-13T05:41:30;101028.00;;;24.00
71564;BMP180;59391;52.504;13.438;2023-07-13T05:43:55;101035.00;;;24.10
71564;BMP180;59391;52.504;13.438;2023-07-13T05:46:21;101031.00;;;24.10
71564;BMP180;59391;52.504;13.438;2023-07-13T05:48:47;101033.00;;;24.10
71564;BMP180;59391;52.504;13.438;2023-07-13T05:51:13;101042.00;;;24.10
71564;BMP180;59391;52.504;13.438;2023-07-13T05:53:39;101037.00;;;24.10
71564;BMP180;59391;52.504;13.438;2023-07-13T05:56:05;101049.00;;;24.10
71564;BMP180;59391;52.504;13.438;2023-07-13T05:58:30;101048.00;;;24.10
71564;BMP180;59391;52.504;13.438;2023-07-13T06:01:05;101041.00;;;24.10
71564;BMP180;59391;52.504;13.438;2023-07-13T06:03:32;101036.00;;;24.20
71564;BMP180;59391;52.504;13.438;2023-07-13T06:05:57;101030.00;;;24.20
71564;BMP180;59391;52.504;13.438;2023-07-13T06:08:26;101044.00;;;24.20
71564;BMP180;59391;52.504;13.438;2023-07-13T06:10:52;101051.00;;;24.20
71564;BMP180;59391;52.504;13.438;2023-07-13T06:13:17;101048.00;;;24.20
71564;BMP180;59391;52.504;13.438;2023-07-13T06:15:51;101042.00;;;24.30
71564;BMP180;59391;52.504;13.438;2023-07-13T06:18:16;101041.00;;;24.30
71564;BMP180;59391;52.504;13.438;2023-07-13T06:20:42;101035.00;;;24.30
71564;BMP180;59391;52.504;13.438;2023-07-13T06:23:08;101043.00;;;24.30
71564;BMP180;59391;52.504;13.438;2023-07-13T06:25:33;101042.00;;;24.30
71564;BMP180;59391;52.504;13.438;2023-07-13T06:27:59;101029.00;;;24.40
71564;BMP180;59391;52.504;13.438;2023-07-13T06:30:26;101030.00;;;24.40
71564;BMP180;59391;52.504;13.438;2023-07-13T06:32:52;101031.00;;;24.40
71564;BMP180;59391;52.504;13.438;2023-07-13T06:35:18;101035.00;;;24.40
71564;BMP180;59391;52.504;13.438;2023-07-13T06:37:43;101036.00;;;24.40
71564;BMP180;59391;52.504;13.438;2023-07-13T06:40:09;101011.00;;;24.50
71564;BMP180;59391;52.504;13.438;2023-07-13T06:42:35;101036.00;;;24.50
71564;BMP180;59391;52.504;13.438;2023-07-13T06:45:01;101031.00;;;24.60
71564;BMP180;59391;52.504;13.438;2023-07-13T06:47:27;101036.00;;;24.60
71564;BMP180;59391;52.504;13.438;2023-07-13T06:49:53;101042.00;;;24.60
71564;BMP180;59391;52.504;13.438;2023-07-13T06:52:18;101038.00;;;24.70
71564;BMP180;59391;52.504;13.438;2023-07-13T06:54:44;101037.00;;;24.70
71564;BMP180;59391;52.504;13.438;2023-07-13T06:57:10;101037.00;;;24.80
71564;BMP180;59391;52.504;13.438;2023-07-13T06:59:35;101043.00;;;24.80
71564;BMP180;59391;52.504;13.438;2023-07-13T07:02:01;101026.00;;;24.80
71564;BMP180;59391;52.504;13.438;2023-07-13T07:04:27;101036.00;;;24.90
71564;BMP180;59391;52.504;13.438;2023-07-13T07:06:52;101036.00;;;25.00
71564;BMP180;59391;52.504;13.438;2023-07-13T07:09:18;101030.00;;;25.00
71564;BMP180;59391;52.504;13.438;2023-07-13T07:11:44;101032.00;;;25.10
71564;BMP180;59391;52.504;13.438;2023-07-13T07:14:09;101033.00;;;25.10
71564;BMP180;59391;52.504;13.438;2023-07-13T07:16:35;101035.00;;;25.20
71564;BMP180;59391;52.504;13.438;2023-07-13T07:19:01;101036.00;;;25.30
71564;BMP180;59391;52.504;13.438;2023-07-13T07:21:27;101035.00;;;25.30
71564;BMP180;59391;52.504;13.438;2023-07-13T07:23:53;101040.00;;;25.40
71564;BMP180;59391;52.504;13.438;2023-07-13T07:26:19;101046.00;;;25.40
71564;BMP180;59391;52.504;13.438;2023-07-13T07:28:45;101037.00;;;25.40
71564;BMP180;59391;52.504;13.438;2023-07-13T07:31:10;101047.00;;;25.50
71564;BMP180;59391;52.504;13.438;2023-07-13T07:33:36;101046.00;;;25.60
71564;BMP180;59391;52.504;13.438;2023-07-13T07:36:02;101046.00;;;25.70
71564;BMP180;59391;52.504;13.438;2023-07-13T07:38:29;101044.00;;;25.80
71564;BMP180;59391;52.504;13.438;2023-07-13T07:40:54;101057.00;;;25.90
71564;BMP180;59391;52.504;13.438;2023-07-13T07:43:20;101046.00;;;25.90
71564;BMP180;59391;52.504;13.438;2023-07-13T07:45:46;101050.00;;;26.10
71564;BMP180;59391;52.504;13.438;2023-07-13T07:48:12;101056.00;;;26.20
71564;BMP180;59391;52.504;13.438;2023-07-13T07:50:38;101043.00;;;26.30
71564;BMP180;59391;52.504;13.438;2023-07-13T07:53:05;101051.00;;;26.40
71564;BMP180;59391;52.504;13.438;2023-07-13T07:55:34;101052.00;;;26.50
71564;BMP180;59391;52.504;13.438;2023-07-13T07:58:01;101049.00;;;26.60
71564;BMP180;59391;52.504;13.438;2023-07-13T08:00:27;101048.00;;;26.70
71564;BMP180;59391;52.504;13.438;2023-07-13T08:02:55;101053.00;;;26.70
71564;BMP180;59391;52.504;13.438;2023-07-13T08:05:21;101065.00;;;26.80
71564;BMP180;59391;52.504;13.438;2023-07-13T08:07:47;101061.00;;;26.80
71564;BMP180;59391;52.504;13.438;2023-07-13T08:10:12;101060.00;;;26.90
71564;BMP180;59391;52.504;13.438;2023-07-13T08:12:39;101069.00;;;26.90
71564;BMP180;59391;52.504;13.438;2023-07-13T08:15:10;101063.00;;;26.90
71564;BMP180;59391;52.504;13.438;2023-07-13T08:17:36;101067.00;;;27.00
71564;BMP180;59391;52.504;13.438;2023-07-13T08:20:02;101071.00;;;27.00
71564;BMP180;59391;52.504;13.438;2023-07-13T08:22:28;101069.00;;;27.00
71564;BMP180;59391;52.504;13.438;2023-07-13T08:24:53;101069.00;;;27.10
71564;BMP180;59391;52.504;13.438;2023-07-13T08:27:27;101071.00;;;27.10
71564;BMP180;59391;52.504;13.438;2023-07-13T08:29:54;101071.00;;;27.10
71564;BMP180;59391;52.504;13.438;2023-07-13T08:32:21;101083.00;;;27.20
71564;BMP180;59391;52.504;13.438;2023-07-13T08:34:48;101074.00;;;27.20
71564;BMP180;59391;52.504;13.438;2023-07-13T08:37:16;101073.00;;;27.20
71564;BMP180;59391;52.504;13.438;2023-07-13T08:39:42;101083.00;;;27.20
71564;BMP180;59391;52.504;13.438;2023-07-13T08:42:45;101082.00;;;27.00
71564;BMP180;59391;52.504;13.438;2023-07-13T08:45:29;101082.00;;;26.90
71564;BMP180;59391;52.504;13.438;2023-07-13T08:51:02;101082.00;;;26.90
71564;BMP180;59391;52.504;13.438;2023-07-13T08:53:37;101077.00;;;26.90
71564;BMP180;59391;52.504;13.438;2023-07-13T08:56:11;101087.00;;;26.90
71564;BMP180;59391;52.504;13.438;2023-07-13T08:58:38;101085.00;;;26.90
71564;BMP180;59391;52.504;13.438;2023-07-13T09:01:30;101078.00;;;26.90
71564;BMP180;59391;52.504;13.438;2023-07-13T09:04:10;101084.00;;;27.00
71564;BMP180;59391;52.504;13.438;2023-07-13T09:07:03;101089.00;;;27.30
71564;BMP180;59391;52.504;13.438;2023-07-13T09:09:52;101087.00;;;27.70
71564;BMP180;59391;52.504;13.438;2023-07-13T09:12:44;101095.00;;;28.10
71564;BMP180;59391;52.504;13.438;2023-07-13T09:15:30;101077.00;;;28.50
71564;BMP180;59391;52.504;13.438;2023-07-13T09:18:15;101080.00;;;28.90
71564;BMP180;59391;52.504;13.438;2023-07-13T09:20:54;101091.00;;;29.40
71564;BMP180;59391;52.504;13.438;2023-07-13T09:23:24;101086.00;;;29.70
71564;BMP180;59391;52.504;13.438;2023-07-13T09:26:21;101083.00;;;30.10
71564;BMP180;59391;52.504;13.438;2023-07-13T09:28:50;101091.00;;;30.30
71564;BMP180;59391;52.504;13.438;2023-07-13T09:31:37;101078.00;;;30.30
71564;BMP180;59391;52.504;13.438;2023-07-13T09:34:10;101082.00;;;30.50
71564;BMP180;59391;52.504;13.438;2023-07-13T09:36:36;101083.00;;;30.70
71564;BMP180;59391;52.504;13.438;2023-07-13T09:44:18;101083.00;;;30.70
71564;BMP180;59391;52.504;13.438;2023-07-13T09:46:55;101085.00;;;30.70
71564;BMP180;59391;52.504;13.438;2023-07-13T09:49:35;101078.00;;;30.70
71564;BMP180;59391;52.504;13.438;2023-07-13T09:52:12;101106.00;;;30.60
71564;BMP180;59391;52.504;13.438;2023-07-13T09:54:43;101096.00;;;30.70
71564;BMP180;59391;52.504;13.438;2023-07-13T09:57:19;101082.00;;;30.50
71564;BMP180;59391;52.504;13.438;2023-07-13T09:59:51;101083.00;;;30.70
71564;BMP180;59391;52.504;13.438;2023-07-13T10:02:29;101093.00;;;31.00
71564;BMP180;59391;52.504;13.438;2023-07-13T10:05:11;101083.00;;;31.00
71564;BMP180;59391;52.504;13.438;2023-07-13T10:07:43;101088.00;;;30.80
71564;BMP180;59391;52.504;13.438;2023-07-13T10:10:20;101089.00;;;30.40
71564;BMP180;59391;52.504;13.438;2023-07-13T10:12:47;101091.00;;;30.10
71564;BMP180;59391;52.504;13.438;2023-07-13T10:15:24;101091.00;;;29.70
71564;BMP180;59391;52.504;13.438;2023-07-13T10:17:53;101093.00;;;29.50
71564;BMP180;59391;52.504;13.438;2023-07-13T10:20:21;101086.00;;;29.60
71564;BMP180;59391;52.504;13.438;2023-07-13T10:23:04;101085.00;;;29.80
71564;BMP180;59391;52.504;13.438;2023-07-13T10:25:38;101074.00;;;29.80
71564;BMP180;59391;52.504;13.438;2023-07-13T10:28:32;101077.00;;;29.70
71564;BMP180;59391;52.504;13.438;2023-07-13T10:31:01;101091.00;;;29.70
71564;BMP180;59391;52.504;13.438;2023-07-13T10:33:27;101101.00;;;29.40
71564;BMP180;59391;52.504;13.438;2023-07-13T10:36:14;101086.00;;;29.10
71564;BMP180;59391;52.504;13.438;2023-07-13T10:38:41;101104.00;;;29.10
71564;BMP180;59391;52.504;13.438;2023-07-13T10:41:15;101092.00;;;29.20
71564;BMP180;59391;52.504;13.438;2023-07-13T10:43:47;101087.00;;;29.30
71564;BMP180;59391;52.504;13.438;2023-07-13T10:46:19;101116.00;;;29.30
71564;BMP180;59391;52.504;13.438;2023-07-13T10:49:04;101103.00;;;29.30
71564;BMP180;59391;52.504;13.438;2023-07-13T10:51:31;101103.00;;;29.40
71564;BMP180;59391;52.504;13.438;2023-07-13T10:54:17;101088.00;;;29.60
71564;BMP180;59391;52.504;13.438;2023-07-13T10:56:45;101094.00;;;29.90
71564;BMP180;59391;52.504;13.438;2023-07-13T11:02:11;101092.00;;;30.00
71564;BMP180;59391;52.504;13.438;2023-07-13T11:04:47;101104.00;;;30.00
71564;BMP180;59391;52.504;13.438;2023-07-13T11:07:29;101085.00;;;30.10
71564;BMP180;59391;52.504;13.438;2023-07-13T11:09:59;101085.00;;;30.20
71564;BMP180;59391;52.504;13.438;2023-07-13T11:25:35;101064.00;;;31.30
71564;BMP180;59391;52.504;13.438;2023-07-13T11:36:12;101069.00;;;32.20
71564;BMP180;59391;52.504;13.438;2023-07-13T11:38:42;101067.00;;;32.30
71564;BMP180;59391;52.504;13.438;2023-07-13T11:41:36;101073.00;;;32.30
71564;BMP180;59391;52.504;13.438;2023-07-13T11:44:14;101071.00;;;32.40
71564;BMP180;59391;52.504;13.438;2023-07-13T11:46:47;101081.00;;;32.30
71564;BMP180;59391;52.504;13.438;2023-07-13T11:49:22;101080.00;;;32.40
71564;BMP180;59391;52.504;13.438;2023-07-13T11:51:49;101087.00;;;32.60
71564;BMP180;59391;52.504;13.438;2023-07-13T11:54:34;101076.00;;;32.70
71564;BMP180;59391;52.504;13.438;2023-07-13T11:57:26;101063.00;;;32.70
71564;BMP180;59391;52.504;13.438;2023-07-13T11:59:55;101077.00;;;32.90
71564;BMP180;59391;52.504;13.438;2023-07-13T12:02:45;101071.00;;;32.70
71564;BMP180;59391;52.504;13.438;2023-07-13T12:05:16;101075.00;;;32.50
71564;BMP180;59391;52.504;13.438;2023-07-13T12:07:43;101069.00;;;32.50
71564;BMP180;59391;52.504;13.438;2023-07-13T12:10:24;101074.00;;;32.60
71564;BMP180;59391;52.504;13.438;2023-07-13T12:12:58;101063.00;;;32.60
71564;BMP180;59391;52.504;13.438;2023-07-13T12:15:38;101068.00;;;32.60
71564;BMP180;59391;52.504;13.438;2023-07-13T12:18:20;101063.00;;;32.60
71564;BMP180;59391;52.504;13.438;2023-07-13T12:20:48;101065.00;;;32.40
71564;BMP180;59391;52.504;13.438;2023-07-13T12:25:52;101070.00;;;32.20
71564;BMP180;59391;52.504;13.438;2023-07-13T12:28:35;101086.00;;;32.10
71564;BMP180;59391;52.504;13.438;2023-07-13T12:31:08;101074.00;;;32.00
71564;BMP180;59391;52.504;13.438;2023-07-13T12:33:44;101061.00;;;32.00
71564;BMP180;59391;52.504;13.438;2023-07-13T12:36:12;101058.00;;;32.20
71564;BMP180;59391;52.504;13.438;2023-07-13T12:38:38;101074.00;;;32.30
71564;BMP180;59391;52.504;13.438;2023-07-13T12:41:04;101072.00;;;32.40
71564;BMP180;59391;52.504;13.438;2023-07-13T12:43:36;101074.00;;;32.60
71564;BMP180;59391;52.504;13.438;2023-07-13T12:48:43;101073.00;;;33.10
71564;BMP180;59391;52.504;13.438;2023-07-13T12:51:13;101070.00;;;33.20
71564;BMP180;59391;52.504;13.438;2023-07-13T12:53:47;101063.00;;;33.50
71564;BMP180;59391;52.504;13.438;2023-07-13T12:56:23;101065.00;;;33.90
71564;BMP180;59391;52.504;13.438;2023-07-13T12:58:54;101075.00;;;34.10
71564;BMP180;59391;52.504;13.438;2023-07-13T13:01:22;101075.00;;;33.90
71564;BMP180;59391;52.504;13.438;2023-07-13T13:03:53;101081.00;;;33.80
71564;BMP180;59391;52.504;13.438;2023-07-13T13:08:47;101072.00;;;33.40
71564;BMP180;59391;52.504;13.438;2023-07-13T13:11:15;101077.00;;;33.10
71564;BMP180;59391;52.504;13.438;2023-07-13T13:13:42;101086.00;;;32.80
71564;BMP180;59391;52.504;13.438;2023-07-13T13:16:20;101081.00;;;32.40
71564;BMP180;59391;52.504;13.438;2023-07-13T13:18:48;101085.00;;;32.20
71564;BMP180;59391;52.504;13.438;2023-07-13T13:21:15;101087.00;;;32.00
71564;BMP180;59391;52.504;13.438;2023-07-13T13:23:40;101083.00;;;31.80
71564;BMP180;59391;52.504;13.438;2023-07-13T13:26:12;101091.00;;;31.70
71564;BMP180;59391;52.504;13.438;2023-07-13T13:28:42;101076.00;;;31.50
71564;BMP180;59391;52.504;13.438;2023-07-13T13:31:11;101082.00;;;31.40
71564;BMP180;59391;52.504;13.438;2023-07-13T13:33:39;101086.00;;;31.40
71564;BMP180;59391;52.504;13.438;2023-07-13T13:38:40;101076.00;;;31.40
71564;BMP180;59391;52.504;13.438;2023-07-13T13:41:07;101089.00;;;31.30
71564;BMP180;59391;52.504;13.438;2023-07-13T13:43:33;101076.00;;;31.20
71564;BMP180;59391;52.504;13.438;2023-07-13T13:45:59;101085.00;;;31.10
71564;BMP180;59391;52.504;13.438;2023-07-13T13:48:34;101093.00;;;31.00
71564;BMP180;59391;52.504;13.438;2023-07-13T13:51:12;101091.00;;;30.80
71564;BMP180;59391;52.504;13.438;2023-07-13T13:53:38;101077.00;;;30.70
71564;BMP180;59391;52.504;13.438;2023-07-13T13:56:04;101070.00;;;30.50
71564;BMP180;59391;52.504;13.438;2023-07-13T13:58:30;101084.00;;;30.50
71564;BMP180;59391;52.504;13.438;2023-07-13T14:00:56;101090.00;;;30.40
71564;BMP180;59391;52.504;13.438;2023-07-13T14:03:24;101084.00;;;30.40
71564;BMP180;59391;52.504;13.438;2023-07-13T14:05:49;101086.00;;;30.40
71564;BMP180;59391;52.504;13.438;2023-07-13T14:08:19;101086.00;;;30.50
71564;BMP180;59391;52.504;13.438;2023-07-13T14:10:48;101066.00;;;30.50
71564;BMP180;59391;52.504;13.438;2023-07-13T14:13:20;101079.00;;;30.40
71564;BMP180;59391;52.504;13.438;2023-07-13T14:15:47;101075.00;;;30.30
71564;BMP180;59391;52.504;13.438;2023-07-13T14:18:14;101067.00;;;30.30
71564;BMP180;59391;52.504;13.438;2023-07-13T14:20:44;101082.00;;;30.20
71564;BMP180;59391;52.504;13.438;2023-07-13T14:23:15;101079.00;;;30.30
71564;BMP180;59391;52.504;13.438;2023-07-13T14:25:46;101079.00;;;30.10
71564;BMP180;59391;52.504;13.438;2023-07-13T14:28:25;101080.00;;;29.90
71564;BMP180;59391;52.504;13.438;2023-07-13T14:30:53;101071.00;;;29.90
71564;BMP180;59391;52.504;13.438;2023-07-13T14:33:20;101092.00;;;30.00
71564;BMP180;59391;52.504;13.438;2023-07-13T14:35:46;101087.00;;;30.10
71564;BMP180;59391;52.504;13.438;2023-07-13T14:38:18;101081.00;;;30.10
71564;BMP180;59391;52.504;13.438;2023-07-13T14:40:44;101082.00;;;30.10